Time;durP1;ratioP1;P1;durP2;ratioP2;P2;SDS_P1;SDS_P2;PMS_P1;PMS_P2;Temp;Humidity;BMP_temperature;BMP_pressure;BME280_temperature;BME280_humidity;BME280_pressure;Samples;Min_cycle;Max_cycle;Signal;HPM_P1;HPM_P2
2021/03/01 00:02:13;;;;;;;13.65;6.05;;;;;;;;;;5025423;28;20025;-69
2021/03/01 00:04:39;;;;;;;11.65;5.90;;;;;;;;;;5011731;28;20032;-72
2021/03/01 00:07:05;;;;;;;12.70;6.22;;;;;;;;;;5011801;28;20435;-72
2021/03/01 00:09:31;;;;;;;9.02;5.70;;;;;;;;;;5029492;28;20022;-69
2021/03/01 00:11:57;;;;;;;10.75;5.50;;;;;;;;;;5029620;28;20029;-69
2021/03/01 00:14:23;;;;;;;9.82;5.28;;;;;;;;;;5029080;28;20037;-66
2021/03/01 00:16:49;;;;;;;10.27;5.72;;;;;;;;;;5014608;28;20041;-69
2021/03/01 00:19:16;;;;;;;9.73;6.03;;;;;;;;;;5024417;28;20022;-66
2021/03/01 00:21:42;;;;;;;10.10;5.47;;;;;;;;;;5009677;28;20061;-67
2021/03/01 00:24:08;;;;;;;10.20;5.60;;;;;;;;;;5009481;28;20025;-70
2021/03/01 00:26:35;;;;;;;12.80;5.68;;;;;;;;;;5009471;28;20108;-69
2021/03/01 00:29:01;;;;;;;10.75;5.38;;;;;;;;;;5024836;28;20057;-71
2021/03/01 00:31:27;;;;;;;11.25;5.72;;;;;;;;;;5027415;28;20014;-68
2021/03/01 00:33:53;;;;;;;10.40;5.65;;;;;;;;;;5027140;28;20068;-72
2021/03/01 00:36:19;;;;;;;9.50;5.63;;;;;;;;;;5029360;28;20044;-71
2021/03/01 00:38:45;;;;;;;13.48;5.80;;;;;;;;;;5029209;28;20025;-69
2021/03/01 00:41:11;;;;;;;12.18;5.88;;;;;;;;;;5011691;28;20026;-68
2021/03/01 00:43:37;;;;;;;9.80;5.45;;;;;;;;;;5029321;28;20018;-69
2021/03/01 00:46:03;;;;;;;10.63;5.43;;;;;;;;;;5029326;28;20029;-70
2021/03/01 00:48:29;;;;;;;11.25;5.63;;;;;;;;;;5011876;28;20098;-67
2021/03/01 00:50:55;;;;;;;10.23;6.05;;;;;;;;;;5012739;28;20061;-68
2021/03/01 00:53:25;;;;;;;12.65;5.22;;;;;;;;;;5009157;28;20022;-69
2021/03/01 00:55:51;;;;;;;10.90;5.93;;;;;;;;;;5008724;28;20026;-67
2021/03/01 00:58:17;;;;;;;11.68;6.00;;;;;;;;;;5009010;28;20050;-67
2021/03/01 01:00:44;;;;;;;12.13;5.97;;;;;;;;;;5008735;28;20030;-67
2021/03/01 01:03:11;;;;;;;10.23;5.07;;;;;;;;;;5076806;28;20030;-68
2021/03/01 01:05:37;;;;;;;8.63;5.10;;;;;;;;;;5008981;28;20106;-67
2021/03/01 01:08:03;;;;;;;9.25;5.60;;;;;;;;;;5009732;28;20489;-68
2021/03/01 01:10:29;;;;;;;9.95;5.93;;;;;;;;;;5009015;28;20029;-68
2021/03/01 01:12:55;;;;;;;10.65;5.85;;;;;;;;;;5019883;28;20022;-67
2021/03/01 01:15:22;;;;;;;8.75;5.22;;;;;;;;;;5028290;28;20096;-68
2021/03/01 01:17:48;;;;;;;8.20;4.68;;;;;;;;;;5028458;28;20029;-74
2021/03/01 01:20:15;;;;;;;10.70;5.50;;;;;;;;;;5028684;28;20040;-71
2021/03/01 01:22:41;;;;;;;8.48;4.80;;;;;;;;;;5028426;28;20025;-70
2021/03/01 01:25:08;;;;;;;10.48;5.32;;;;;;;;;;5027583;28;20060;-65
2021/03/01 01:27:34;;;;;;;10.73;5.40;;;;;;;;;;5011231;28;20132;-71
2021/03/01 01:30:00;;;;;;;9.45;5.38;;;;;;;;;;5028810;28;20033;-70
2021/03/01 01:32:26;;;;;;;11.07;5.30;;;;;;;;;;5027652;28;20013;-71
2021/03/01 01:34:52;;;;;;;8.75;5.43;;;;;;;;;;5028164;28;20486;-69
2021/03/01 01:37:19;;;;;;;9.32;4.75;;;;;;;;;;5010665;28;20501;-69
2021/03/01 01:39:45;;;;;;;9.38;4.80;;;;;;;;;;5028262;28;20045;-68
2021/03/01 01:42:11;;;;;;;9.90;5.03;;;;;;;;;;5010199;28;20079;-68
2021/03/01 01:44:37;;;;;;;9.38;4.82;;;;;;;;;;5007002;28;20018;-68
2021/03/01 01:47:03;;;;;;;15.07;5.47;;;;;;;;;;5008709;28;20034;-72
2021/03/01 01:49:30;;;;;;;9.43;5.05;;;;;;;;;;5011239;28;20022;-72
2021/03/01 01:51:56;;;;;;;11.00;5.15;;;;;;;;;;5024751;28;20022;-69
2021/03/01 01:54:22;;;;;;;7.95;4.78;;;;;;;;;;5027096;28;20017;-73
2021/03/01 01:56:50;;;;;;;10.32;4.97;;;;;;;;;;5027958;28;20104;-69
2021/03/01 01:59:17;;;;;;;11.52;5.10;;;;;;;;;;5020914;28;20105;-71
2021/03/01 02:01:43;;;;;;;10.68;4.95;;;;;;;;;;5027958;28;20022;-71
2021/03/01 02:04:21;;;;;;;9.13;5.03;;;;;;;;;;5010191;28;20022;-71
2021/03/01 02:07:10;;;;;;;8.80;5.07;;;;;;;;;;5027528;28;20036;-73
2021/03/01 02:09:55;;;;;;;11.50;5.00;;;;;;;;;;5000617;28;20040;-70
2021/03/01 02:12:40;;;;;;;8.05;4.72;;;;;;;;;;5028338;28;20104;-69
2021/03/01 02:15:06;;;;;;;7.82;4.63;;;;;;;;;;5018954;28;20057;-73
2021/03/01 02:17:33;;;;;;;8.85;4.82;;;;;;;;;;5008418;28;20063;-72
2021/03/01 02:19:59;;;;;;;8.85;5.30;;;;;;;;;;5023547;28;20026;-70
2021/03/01 02:22:26;;;;;;;7.90;4.93;;;;;;;;;;5023645;28;20030;-71
2021/03/01 02:24:54;;;;;;;8.15;4.53;;;;;;;;;;5008010;28;20042;-68
2021/03/01 02:27:26;;;;;;;9.85;5.18;;;;;;;;;;5011373;28;20079;-68
2021/03/01 02:29:55;;;;;;;7.25;4.70;;;;;;;;;;5011240;28;20024;-68
2021/03/01 02:32:22;;;;;;;11.02;4.53;;;;;;;;;;5037765;28;20120;-69
2021/03/01 02:34:49;;;;;;;10.05;4.25;;;;;;;;;;5030745;28;20057;-68
2021/03/01 02:37:18;;;;;;;9.85;5.00;;;;;;;;;;5030431;28;20402;-67
2021/03/01 02:39:45;;;;;;;10.27;4.88;;;;;;;;;;5040618;28;20044;-70
2021/03/01 02:42:13;;;;;;;12.05;4.90;;;;;;;;;;5013403;28;20058;-67
2021/03/01 02:44:40;;;;;;;10.68;5.20;;;;;;;;;;5031442;28;20022;-68
2021/03/01 02:47:06;;;;;;;13.30;5.03;;;;;;;;;;5013606;28;20034;-68
2021/03/01 02:49:33;;;;;;;9.32;4.85;;;;;;;;;;5017900;28;20390;-66
2021/03/01 02:52:00;;;;;;;8.40;5.15;;;;;;;;;;5010612;28;20026;-69
2021/03/01 02:54:28;;;;;;;8.35;5.13;;;;;;;;;;5011305;28;20021;-67
2021/03/01 02:56:54;;;;;;;10.10;5.10;;;;;;;;;;5011471;28;20040;-68
2021/03/01 02:59:23;;;;;;;9.07;5.15;;;;;;;;;;5011521;28;20105;-67
2021/03/01 03:01:49;;;;;;;8.63;5.25;;;;;;;;;;5011424;28;20025;-68
2021/03/01 03:04:16;;;;;;;8.00;5.10;;;;;;;;;;5011451;28;20065;-67
2021/03/01 03:06:42;;;;;;;8.70;5.15;;;;;;;;;;5011506;28;20038;-67
2021/03/01 03:09:10;;;;;;;8.13;5.15;;;;;;;;;;5011117;28;20022;-67
2021/03/01 03:11:38;;;;;;;9.15;4.80;;;;;;;;;;5011363;28;20029;-67
2021/03/01 03:14:06;;;;;;;8.82;4.80;;;;;;;;;;5011250;28;20071;-66
2021/03/01 03:16:33;;;;;;;10.07;5.07;;;;;;;;;;5009781;28;20112;-67
2021/03/01 03:18:59;;;;;;;7.88;4.88;;;;;;;;;;5011088;28;20034;-67
2021/03/01 03:21:25;;;;;;;9.85;5.00;;;;;;;;;;5027101;28;20021;-69
2021/03/01 03:23:54;;;;;;;8.38;5.20;;;;;;;;;;5015303;28;20026;-67
2021/03/01 03:26:20;;;;;;;9.00;4.93;;;;;;;;;;5003326;28;20050;-67
2021/03/01 03:28:47;;;;;;;8.55;5.05;;;;;;;;;;4971944;28;20043;-68
2021/03/01 03:31:13;;;;;;;8.90;4.93;;;;;;;;;;4972329;28;20591;-67
2021/03/01 03:33:40;;;;;;;8.02;4.80;;;;;;;;;;4972035;28;20031;-67
2021/03/01 03:36:06;;;;;;;8.20;5.15;;;;;;;;;;4971955;28;20026;-67
2021/03/01 03:38:35;;;;;;;8.32;4.88;;;;;;;;;;4970386;28;20019;-66
2021/03/01 03:41:02;;;;;;;9.85;5.20;;;;;;;;;;4988242;28;20026;-67
2021/03/01 03:43:29;;;;;;;11.02;5.25;;;;;;;;;;5023147;28;20511;-67
2021/03/01 03:45:56;;;;;;;6.85;4.45;;;;;;;;;;4991174;28;20116;-68
2021/03/01 03:48:22;;;;;;;9.13;5.20;;;;;;;;;;5022643;28;20075;-68
2021/03/01 03:50:56;;;;;;;8.57;5.30;;;;;;;;;;4990943;28;20034;-68
2021/03/01 03:53:25;;;;;;;8.13;4.82;;;;;;;;;;4975790;28;20031;-67
2021/03/01 03:55:52;;;;;;;8.10;4.85;;;;;;;;;;4971822;28;20030;-67
2021/03/01 03:58:21;;;;;;;8.90;4.85;;;;;;;;;;4972217;28;20106;-67
2021/03/01 04:00:49;;;;;;;8.98;5.32;;;;;;;;;;5003234;28;20053;-68
2021/03/01 04:03:15;;;;;;;8.52;4.85;;;;;;;;;;4971743;28;20038;-67
2021/03/01 04:05:43;;;;;;;8.45;4.88;;;;;;;;;;4971794;28;20038;-67
2021/03/01 04:08:11;;;;;;;8.55;5.28;;;;;;;;;;4971693;28;20022;-67
2021/03/01 04:10:37;;;;;;;7.70;4.80;;;;;;;;;;4971802;28;20027;-69
2021/03/01 04:13:07;;;;;;;7.85;4.80;;;;;;;;;;4972614;28;20395;-67
2021/03/01 04:15:34;;;;;;;8.48;5.10;;;;;;;;;;4990990;28;20102;-67
2021/03/01 04:18:01;;;;;;;8.20;5.28;;;;;;;;;;4991129;28;20501;-67
2021/03/01 04:20:27;;;;;;;7.40;4.55;;;;;;;;;;4991022;28;20030;-67
2021/03/01 04:22:54;;;;;;;9.93;5.00;;;;;;;;;;4990955;28;20081;-67
2021/03/01 04:25:21;;;;;;;8.88;5.40;;;;;;;;;;5022312;28;20052;-67
2021/03/01 04:27:47;;;;;;;12.27;6.05;;;;;;;;;;4989418;28;20081;-67
2021/03/01 04:30:15;;;;;;;9.45;5.00;;;;;;;;;;4992697;28;20026;-67
2021/03/01 04:32:45;;;;;;;8.07;5.07;;;;;;;;;;5010380;28;20677;-67
2021/03/01 04:35:13;;;;;;;7.95;5.15;;;;;;;;;;5010258;28;20055;-67
2021/03/01 04:37:39;;;;;;;9.63;5.03;;;;;;;;;;5010298;28;20086;-67
2021/03/01 04:40:05;;;;;;;9.70;5.75;;;;;;;;;;5010339;28;20036;-67
2021/03/01 04:42:32;;;;;;;9.13;5.63;;;;;;;;;;5008991;28;20113;-67
2021/03/01 04:44:59;;;;;;;9.05;5.68;;;;;;;;;;5010072;28;20019;-68
2021/03/01 04:47:26;;;;;;;12.73;5.20;;;;;;;;;;5009078;28;20087;-69
2021/03/01 04:49:53;;;;;;;9.27;5.50;;;;;;;;;;5009524;28;20486;-68
2021/03/01 04:52:19;;;;;;;8.95;5.55;;;;;;;;;;5010165;28;20617;-67
2021/03/01 04:54:45;;;;;;;9.90;5.50;;;;;;;;;;5005082;28;20048;-67
2021/03/01 04:57:13;;;;;;;9.63;5.93;;;;;;;;;;4990349;28;20034;-67
2021/03/01 04:59:41;;;;;;;10.30;5.43;;;;;;;;;;4990334;28;20018;-67
2021/03/01 05:02:08;;;;;;;12.05;5.68;;;;;;;;;;4990594;28;20372;-67
2021/03/01 05:04:35;;;;;;;8.38;5.10;;;;;;;;;;4989638;28;20029;-67
2021/03/01 05:07:01;;;;;;;11.02;6.00;;;;;;;;;;4990185;28;20108;-67
2021/03/01 05:09:27;;;;;;;9.25;5.63;;;;;;;;;;4990011;28;20395;-67
2021/03/01 05:11:53;;;;;;;10.50;5.32;;;;;;;;;;4990258;28;20117;-67
2021/03/01 05:14:19;;;;;;;10.77;5.80;;;;;;;;;;4990299;28;20026;-67
2021/03/01 05:16:46;;;;;;;8.15;5.65;;;;;;;;;;4990026;28;20033;-67
2021/03/01 05:19:12;;;;;;;9.02;5.32;;;;;;;;;;4990110;28;20581;-66
2021/03/01 05:21:38;;;;;;;11.43;5.43;;;;;;;;;;4990496;28;20697;-67
2021/03/01 05:24:04;;;;;;;11.32;5.90;;;;;;;;;;4988714;28;20654;-67
2021/03/01 05:26:30;;;;;;;8.25;5.13;;;;;;;;;;4988628;28;20054;-67
2021/03/01 05:28:57;;;;;;;9.70;5.20;;;;;;;;;;4989899;28;20029;-68
2021/03/01 05:31:24;;;;;;;9.25;6.03;;;;;;;;;;4989730;28;20026;-67
2021/03/01 05:33:50;;;;;;;8.85;5.25;;;;;;;;;;4989460;28;20113;-67
2021/03/01 05:36:16;;;;;;;9.32;5.25;;;;;;;;;;4989386;28;20030;-67
2021/03/01 05:38:42;;;;;;;9.50;5.28;;;;;;;;;;4988581;28;20606;-67
2021/03/01 05:41:08;;;;;;;11.02;6.28;;;;;;;;;;4987860;28;20461;-67
2021/03/01 05:43:34;;;;;;;10.05;5.45;;;;;;;;;;4989257;28;20413;-67
2021/03/01 05:46:01;;;;;;;11.40;5.50;;;;;;;;;;4989063;28;20030;-67
2021/03/01 05:48:28;;;;;;;9.48;5.35;;;;;;;;;;4989618;28;20483;-67
2021/03/01 05:50:58;;;;;;;10.63;5.65;;;;;;;;;;4988307;28;20049;-67
2021/03/01 05:53:28;;;;;;;8.45;5.38;;;;;;;;;;4989692;28;20035;-67
2021/03/01 05:55:55;;;;;;;9.38;5.47;;;;;;;;;;4995746;28;20029;-67
2021/03/01 05:58:21;;;;;;;9.32;5.35;;;;;;;;;;5009165;28;20026;-67
2021/03/01 06:00:47;;;;;;;9.20;5.43;;;;;;;;;;5009874;28;20025;-67
2021/03/01 06:03:14;;;;;;;9.45;5.32;;;;;;;;;;5011544;28;20383;-67
2021/03/01 06:05:40;;;;;;;8.95;5.60;;;;;;;;;;5012693;28;20075;-67
2021/03/01 06:08:07;;;;;;;9.63;5.25;;;;;;;;;;5012472;28;20045;-67
2021/03/01 06:10:33;;;;;;;9.40;5.32;;;;;;;;;;5012439;28;20068;-67
2021/03/01 06:12:59;;;;;;;11.35;5.15;;;;;;;;;;5011583;28;20052;-68
2021/03/01 06:15:25;;;;;;;8.90;5.10;;;;;;;;;;5012304;28;20054;-68
2021/03/01 06:18:05;;;;;;;11.05;5.30;;;;;;;;;;5010916;28;20050;-67
2021/03/01 06:20:31;;;;;;;10.38;5.32;;;;;;;;;;5012380;28;20036;-67
2021/03/01 06:22:57;;;;;;;10.52;5.57;;;;;;;;;;5012390;28;20022;-66
2021/03/01 06:25:23;;;;;;;9.73;5.10;;;;;;;;;;5020186;28;20056;-68
2021/03/01 06:27:52;;;;;;;9.65;5.60;;;;;;;;;;5031760;28;20037;-68
2021/03/01 06:30:20;;;;;;;10.38;5.45;;;;;;;;;;5013381;28;20049;-68
2021/03/01 06:33:04;;;;;;;11.00;5.20;;;;;;;;;;5031844;28;20021;-67
2021/03/01 06:35:33;;;;;;;10.65;5.25;;;;;;;;;;5031518;28;20534;-67
2021/03/01 06:38:14;;;;;;;9.63;5.45;;;;;;;;;;5031664;28;20053;-68
2021/03/01 06:40:40;;;;;;;10.48;4.95;;;;;;;;;;5031716;28;20044;-67
2021/03/01 06:43:13;;;;;;;11.18;5.25;;;;;;;;;;5014074;28;20389;-68
2021/03/01 06:45:39;;;;;;;9.50;5.20;;;;;;;;;;5031695;28;20124;-67
2021/03/01 06:48:05;;;;;;;12.27;5.65;;;;;;;;;;5030532;28;20041;-68
2021/03/01 06:50:35;;;;;;;9.38;4.82;;;;;;;;;;5013840;28;20021;-68
2021/03/01 06:53:05;;;;;;;10.73;5.40;;;;;;;;;;5031560;28;20021;-67
2021/03/01 06:55:32;;;;;;;10.98;5.18;;;;;;;;;;5002533;28;20024;-67
2021/03/01 06:58:14;;;;;;;8.93;5.00;;;;;;;;;;5025384;28;20062;-67
2021/03/01 07:00:40;;;;;;;12.93;5.13;;;;;;;;;;5011787;28;20501;-67
2021/03/01 07:03:18;;;;;;;9.13;5.13;;;;;;;;;;5026909;28;20072;-67
2021/03/01 07:05:54;;;;;;;7.82;4.70;;;;;;;;;;5011534;28;20049;-67
2021/03/01 07:08:39;;;;;;;9.10;4.63;;;;;;;;;;5011596;28;20055;-67
2021/03/01 07:11:19;;;;;;;8.25;5.00;;;;;;;;;;5011395;28;20101;-68
2021/03/01 07:13:45;;;;;;;7.93;4.43;;;;;;;;;;5010158;28;20108;-68
2021/03/01 07:16:11;;;;;;;8.10;4.65;;;;;;;;;;5009949;28;20022;-68
2021/03/01 07:18:38;;;;;;;10.02;4.72;;;;;;;;;;5011325;28;20026;-68
2021/03/01 07:21:04;;;;;;;9.10;4.63;;;;;;;;;;5011798;28;20394;-68
2021/03/01 07:23:31;;;;;;;9.65;4.60;;;;;;;;;;5011124;28;20026;-68
2021/03/01 07:25:57;;;;;;;7.80;4.38;;;;;;;;;;5009401;28;20380;-68
2021/03/01 07:28:23;;;;;;;7.35;3.63;;;;;;;;;;5011040;28;20041;-68
2021/03/01 07:30:50;;;;;;;7.85;4.32;;;;;;;;;;5010890;28;20690;-68
2021/03/01 07:33:16;;;;;;;8.02;4.70;;;;;;;;;;5009569;28;20026;-67
2021/03/01 07:35:43;;;;;;;7.82;4.15;;;;;;;;;;5010661;28;20018;-67
2021/03/01 07:38:09;;;;;;;7.45;4.55;;;;;;;;;;5015860;28;20018;-68
2021/03/01 07:40:36;;;;;;;7.43;4.53;;;;;;;;;;5010793;28;20390;-67
2021/03/01 07:43:06;;;;;;;9.55;4.75;;;;;;;;;;5010590;28;20026;-68
2021/03/01 07:45:32;;;;;;;8.95;4.80;;;;;;;;;;5010538;28;20367;-67
2021/03/01 07:48:00;;;;;;;7.53;4.78;;;;;;;;;;5010714;28;20033;-67
2021/03/01 07:50:36;;;;;;;9.68;5.13;;;;;;;;;;5025904;28;20014;-67
2021/03/01 07:53:02;;;;;;;9.88;4.65;;;;;;;;;;5010368;28;20374;-68
2021/03/01 07:55:28;;;;;;;9.68;5.18;;;;;;;;;;5011682;28;20033;-68
2021/03/01 07:58:06;;;;;;;10.45;5.07;;;;;;;;;;5010275;28;20028;-68
2021/03/01 08:00:34;;;;;;;7.78;4.93;;;;;;;;;;5014322;28;20029;-68
2021/03/01 08:03:01;;;;;;;7.38;4.35;;;;;;;;;;5029359;28;20100;-68
2021/03/01 08:05:29;;;;;;;10.98;5.20;;;;;;;;;;5029091;28;20033;-68
2021/03/01 08:07:55;;;;;;;9.73;4.70;;;;;;;;;;5029843;28;20082;-69
2021/03/01 08:10:27;;;;;;;8.50;4.90;;;;;;;;;;5029741;28;20355;-68
2021/03/01 08:12:56;;;;;;;7.50;4.40;;;;;;;;;;5027474;28;20021;-67
2021/03/01 08:15:27;;;;;;;9.48;4.30;;;;;;;;;;5029400;28;20021;-70
2021/03/01 08:17:53;;;;;;;8.70;4.32;;;;;;;;;;5029591;28;20018;-71
2021/03/01 08:20:27;;;;;;;9.88;4.88;;;;;;;;;;5029986;28;20070;-74
2021/03/01 08:23:06;;;;;;;8.98;4.55;;;;;;;;;;5027357;28;20425;-70
2021/03/01 08:25:44;;;;;;;7.70;4.40;;;;;;;;;;5027477;28;20041;-70
2021/03/01 08:28:16;;;;;;;9.32;5.20;;;;;;;;;;5027708;28;20028;-70
2021/03/01 08:30:43;;;;;;;8.40;4.90;;;;;;;;;;5010318;28;20057;-71
2021/03/01 08:33:09;;;;;;;7.22;4.53;;;;;;;;;;5010808;28;20026;-69
2021/03/01 08:35:55;;;;;;;8.52;4.45;;;;;;;;;;5029301;28;20113;-71
2021/03/01 08:38:40;;;;;;;9.95;5.43;;;;;;;;;;5015872;28;20029;-70
2021/03/01 08:41:07;;;;;;;11.23;5.70;;;;;;;;;;5009933;28;20068;-69
2021/03/01 08:43:43;;;;;;;12.73;4.10;;;;;;;;;;5009375;28;20494;-68
2021/03/01 08:46:17;;;;;;;11.50;4.40;;;;;;;;;;4992299;28;20091;-68
2021/03/01 08:48:44;;;;;;;9.38;5.10;;;;;;;;;;5009424;28;20038;-67
2021/03/01 08:51:11;;;;;;;11.90;5.03;;;;;;;;;;5009173;28;20058;-68
2021/03/01 08:53:37;;;;;;;10.73;4.57;;;;;;;;;;5015805;28;20406;-67
2021/03/01 08:56:04;;;;;;;13.88;4.90;;;;;;;;;;5028772;28;20028;-67
2021/03/01 08:58:33;;;;;;;12.52;4.85;;;;;;;;;;5028980;28;20036;-68
2021/03/01 09:01:09;;;;;;;11.52;5.38;;;;;;;;;;5029048;28;20021;-68
2021/03/01 09:03:39;;;;;;;9.07;4.53;;;;;;;;;;5010245;28;20090;-67
2021/03/01 09:06:07;;;;;;;8.43;4.32;;;;;;;;;;5028780;28;20025;-67
2021/03/01 09:08:35;;;;;;;9.18;4.60;;;;;;;;;;5028750;28;20486;-67
2021/03/01 09:11:02;;;;;;;7.55;4.60;;;;;;;;;;5028786;28;20025;-66
2021/03/01 09:13:29;;;;;;;6.55;4.22;;;;;;;;;;5011086;28;20029;-68
2021/03/01 09:15:55;;;;;;;8.82;4.68;;;;;;;;;;5028689;28;20022;-68
2021/03/01 09:18:21;;;;;;;15.55;4.63;;;;;;;;;;5010792;28;20048;-69
2021/03/01 09:20:55;;;;;;;9.10;4.82;;;;;;;;;;5014632;28;20427;-69
2021/03/01 09:23:42;;;;;;;10.32;4.72;;;;;;;;;;5023854;28;20039;-69
2021/03/01 09:26:08;;;;;;;12.27;5.28;;;;;;;;;;5029083;28;20406;-68
2021/03/01 09:28:35;;;;;;;8.85;4.63;;;;;;;;;;5028947;28;20033;-71
2021/03/01 09:31:03;;;;;;;11.00;5.18;;;;;;;;;;5026519;28;20043;-67
2021/03/01 09:33:29;;;;;;;11.32;4.85;;;;;;;;;;5029096;28;20363;-68
2021/03/01 09:35:56;;;;;;;8.85;4.80;;;;;;;;;;5029097;28;20022;-67
2021/03/01 09:38:22;;;;;;;7.78;4.55;;;;;;;;;;5028134;28;20040;-70
2021/03/01 09:40:55;;;;;;;7.78;4.28;;;;;;;;;;5028623;28;20077;-69
2021/03/01 09:43:23;;;;;;;7.65;4.50;;;;;;;;;;5010699;28;20024;-69
2021/03/01 09:45:50;;;;;;;10.07;5.07;;;;;;;;;;5028452;28;20025;-69
2021/03/01 09:48:16;;;;;;;9.10;4.55;;;;;;;;;;5028666;28;20116;-71
2021/03/01 09:50:42;;;;;;;7.95;4.10;;;;;;;;;;5028271;28;20052;-68
2021/03/01 09:53:09;;;;;;;9.82;4.90;;;;;;;;;;5008992;28;20133;-68
2021/03/01 09:55:36;;;;;;;7.65;4.30;;;;;;;;;;5008318;28;20040;-71
2021/03/01 09:58:02;;;;;;;9.90;4.00;;;;;;;;;;5008550;28;20101;-68
2021/03/01 10:00:29;;;;;;;7.38;4.32;;;;;;;;;;5008737;28;20022;-72
2021/03/01 10:02:55;;;;;;;6.03;3.80;;;;;;;;;;5008563;28;20053;-68
2021/03/01 10:05:21;;;;;;;12.75;4.25;;;;;;;;;;5076297;28;20486;-68
2021/03/01 10:07:54;;;;;;;6.80;3.80;;;;;;;;;;5026858;28;20087;-73
2021/03/01 10:10:20;;;;;;;8.05;3.97;;;;;;;;;;5025734;28;20033;-75
2021/03/01 10:12:47;;;;;;;9.30;4.00;;;;;;;;;;5008842;28;20026;-72
2021/03/01 10:15:13;;;;;;;7.35;3.90;;;;;;;;;;5007534;28;20432;-79
2021/03/01 10:17:40;;;;;;;7.32;3.42;;;;;;;;;;5008601;28;20061;-80
2021/03/01 10:20:10;;;;;;;7.65;3.70;;;;;;;;;;5008922;28;20101;-75
2021/03/01 10:22:54;;;;;;;8.63;3.72;;;;;;;;;;5020186;28;20026;-73
2021/03/01 10:25:31;;;;;;;6.13;3.78;;;;;;;;;;5024582;28;20038;-74
2021/03/01 10:27:57;;;;;;;7.38;3.45;;;;;;;;;;5024397;28;20045;-74
2021/03/01 10:30:23;;;;;;;7.72;3.42;;;;;;;;;;5027791;28;20043;-73
2021/03/01 10:32:49;;;;;;;6.53;3.53;;;;;;;;;;5010399;28;20028;-70
2021/03/01 10:35:19;;;;;;;7.32;3.75;;;;;;;;;;5028044;28;20018;-68
2021/03/01 10:38:05;;;;;;;9.35;3.50;;;;;;;;;;5027922;28;20029;-72
2021/03/01 10:40:31;;;;;;;7.05;3.30;;;;;;;;;;5027873;28;20026;-71
2021/03/01 10:42:57;;;;;;;7.35;4.03;;;;;;;;;;5027646;28;20108;-70
2021/03/01 10:45:23;;;;;;;5.20;3.20;;;;;;;;;;4998525;28;20057;-71
2021/03/01 10:48:02;;;;;;;6.65;4.05;;;;;;;;;;5010735;28;20034;-72
2021/03/01 10:50:28;;;;;;;5.55;3.30;;;;;;;;;;5010444;28;20501;-69
2021/03/01 10:52:54;;;;;;;5.90;3.45;;;;;;;;;;5010596;28;20034;-75
2021/03/01 10:55:20;;;;;;;6.38;3.75;;;;;;;;;;5010252;28;20026;-75
2021/03/01 10:57:46;;;;;;;9.38;3.78;;;;;;;;;;5011528;28;20037;-70
2021/03/01 11:00:12;;;;;;;8.82;3.50;;;;;;;;;;5011549;28;20123;-70
2021/03/01 11:02:38;;;;;;;8.43;3.60;;;;;;;;;;5012136;28;20018;-71
2021/03/01 11:05:05;;;;;;;17.25;3.97;;;;;;;;;;5011164;28;20026;-75
2021/03/01 11:07:31;;;;;;;5.70;3.20;;;;;;;;;;5010778;28;20170;-75
2021/03/01 11:09:57;;;;;;;7.53;3.47;;;;;;;;;;5011239;28;20063;-76
2021/03/01 11:12:23;;;;;;;5.38;3.20;;;;;;;;;;5017599;28;20053;-70
2021/03/01 11:14:49;;;;;;;5.55;2.78;;;;;;;;;;5030963;28;20057;-68
2021/03/01 11:17:15;;;;;;;7.40;3.30;;;;;;;;;;5012885;28;20029;-67
2021/03/01 11:19:42;;;;;;;5.60;3.47;;;;;;;;;;5011998;28;20034;-68
2021/03/01 11:22:08;;;;;;;14.98;3.13;;;;;;;;;;5027731;28;20070;-68
2021/03/01 11:24:34;;;;;;;8.55;3.60;;;;;;;;;;5029546;28;20021;-68
2021/03/01 11:27:01;;;;;;;7.97;3.35;;;;;;;;;;5030515;28;20083;-69
2021/03/01 11:29:27;;;;;;;7.20;3.30;;;;;;;;;;5012878;28;20036;-69
2021/03/01 11:31:53;;;;;;;6.43;3.00;;;;;;;;;;5030923;28;20033;-68
2021/03/01 11:34:19;;;;;;;5.00;2.88;;;;;;;;;;5030839;28;20030;-69
2021/03/01 11:36:45;;;;;;;6.97;3.10;;;;;;;;;;5030071;28;20036;-68
2021/03/01 11:39:15;;;;;;;7.43;3.30;;;;;;;;;;5030826;28;20053;-68
2021/03/01 11:41:41;;;;;;;5.03;2.67;;;;;;;;;;5012907;28;20371;-70
2021/03/01 11:44:10;;;;;;;6.90;3.20;;;;;;;;;;5030647;28;20021;-67
2021/03/01 11:46:37;;;;;;;8.02;2.92;;;;;;;;;;5030549;28;20033;-68
2021/03/01 11:49:03;;;;;;;11.05;4.03;;;;;;;;;;5022529;28;20525;-68
2021/03/01 11:51:29;;;;;;;11.07;3.53;;;;;;;;;;5010993;28;20034;-71
2021/03/01 11:53:55;;;;;;;14.10;3.78;;;;;;;;;;5026075;28;20025;-68
2021/03/01 11:56:21;;;;;;;12.18;4.18;;;;;;;;;;5017314;28;20032;-67
2021/03/01 11:58:47;;;;;;;9.57;3.78;;;;;;;;;;5027939;28;20040;-71
2021/03/01 12:01:13;;;;;;;14.65;3.75;;;;;;;;;;5029417;28;20021;-72
2021/03/01 12:03:40;;;;;;;10.13;3.53;;;;;;;;;;5012757;28;20021;-68
2021/03/01 12:06:06;;;;;;;10.25;3.42;;;;;;;;;;5013300;28;20046;-66
2021/03/01 12:08:32;;;;;;;12.93;3.67;;;;;;;;;;5030755;28;20067;-66
2021/03/01 12:10:58;;;;;;;9.68;3.85;;;;;;;;;;5013268;28;20501;-66
2021/03/01 12:13:24;;;;;;;8.65;3.28;;;;;;;;;;5009865;28;20083;-67
2021/03/01 12:15:51;;;;;;;14.82;3.13;;;;;;;;;;5010097;28;20032;-65
2021/03/01 12:18:17;;;;;;;11.23;3.40;;;;;;;;;;5010068;28;20025;-65
2021/03/01 12:20:43;;;;;;;7.25;2.97;;;;;;;;;;5010020;28;20063;-65
2021/03/01 12:23:09;;;;;;;7.50;3.00;;;;;;;;;;5026027;28;20033;-66
2021/03/01 12:25:35;;;;;;;8.95;3.03;;;;;;;;;;5029338;28;20161;-66
2021/03/01 12:28:01;;;;;;;6.20;2.95;;;;;;;;;;5028574;28;20040;-66
2021/03/01 12:30:27;;;;;;;9.65;3.05;;;;;;;;;;5011593;28;20033;-65
2021/03/01 12:32:53;;;;;;;8.48;2.72;;;;;;;;;;5029540;28;20022;-66
2021/03/01 12:35:19;;;;;;;9.27;3.15;;;;;;;;;;5011731;28;20056;-67
2021/03/01 12:37:45;;;;;;;5.88;2.58;;;;;;;;;;5028966;28;20077;-67
2021/03/01 12:40:12;;;;;;;10.00;3.17;;;;;;;;;;5011486;28;20030;-68
2021/03/01 12:42:38;;;;;;;5.00;2.30;;;;;;;;;;5011741;28;20032;-68
2021/03/01 12:45:04;;;;;;;10.32;3.03;;;;;;;;;;5012301;28;20083;-68
2021/03/01 12:47:30;;;;;;;7.47;2.80;;;;;;;;;;5008742;28;20041;-68
2021/03/01 12:49:56;;;;;;;8.55;2.60;;;;;;;;;;5009186;28;20079;-70
2021/03/01 12:52:22;;;;;;;6.63;2.88;;;;;;;;;;5008113;28;20022;-70
2021/03/01 12:54:48;;;;;;;6.15;2.83;;;;;;;;;;5009051;28;20022;-67
2021/03/01 12:57:15;;;;;;;5.95;2.53;;;;;;;;;;5076840;28;20026;-66
2021/03/01 12:59:41;;;;;;;6.30;2.78;;;;;;;;;;5008983;28;20022;-67
2021/03/01 13:02:07;;;;;;;5.93;2.65;;;;;;;;;;5009616;28;20082;-66
2021/03/01 13:04:33;;;;;;;7.15;2.83;;;;;;;;;;5009129;28;20014;-67
2021/03/01 13:06:59;;;;;;;6.32;2.88;;;;;;;;;;5008749;28;20091;-67
2021/03/01 13:09:26;;;;;;;8.20;2.40;;;;;;;;;;5008407;28;20380;-69
2021/03/01 13:11:52;;;;;;;5.78;2.40;;;;;;;;;;5009091;28;20021;-70
2021/03/01 13:14:18;;;;;;;6.28;2.78;;;;;;;;;;5021511;28;20167;-66
2021/03/01 13:16:44;;;;;;;6.32;2.80;;;;;;;;;;5010652;28;20029;-73
2021/03/01 13:19:10;;;;;;;5.72;2.60;;;;;;;;;;5013379;28;20022;-70
2021/03/01 13:21:36;;;;;;;6.30;2.70;;;;;;;;;;5027977;28;20026;-67
2021/03/01 13:24:02;;;;;;;9.80;2.72;;;;;;;;;;5028704;28;20088;-71
2021/03/01 13:26:28;;;;;;;8.43;2.70;;;;;;;;;;5028592;28;20056;-75
2021/03/01 13:28:54;;;;;;;23.45;2.95;;;;;;;;;;5010845;28;20063;-66
2021/03/01 13:31:20;;;;;;;8.00;2.72;;;;;;;;;;5028153;28;20029;-68
2021/03/01 13:33:46;;;;;;;5.60;2.22;;;;;;;;;;5028550;28;20025;-69
2021/03/01 13:36:13;;;;;;;5.38;2.65;;;;;;;;;;5027663;28;20108;-66
2021/03/01 13:38:39;;;;;;;6.65;3.35;;;;;;;;;;5028520;28;20026;-75
2021/03/01 13:41:05;;;;;;;5.35;2.53;;;;;;;;;;5028503;28;20026;-68
2021/03/01 13:43:31;;;;;;;5.38;2.50;;;;;;;;;;5028364;28;20037;-67
2021/03/01 13:45:57;;;;;;;4.72;2.22;;;;;;;;;;5028604;28;20517;-68
2021/03/01 13:48:23;;;;;;;5.35;2.17;;;;;;;;;;5028063;28;20116;-67
2021/03/01 13:50:49;;;;;;;5.32;2.42;;;;;;;;;;5027075;28;20067;-66
2021/03/01 13:53:15;;;;;;;7.50;2.63;;;;;;;;;;5008328;28;20045;-68
2021/03/01 13:55:41;;;;;;;7.25;2.65;;;;;;;;;;5027884;28;20028;-67
2021/03/01 13:58:07;;;;;;;5.03;2.30;;;;;;;;;;5028277;28;20386;-66
2021/03/01 14:00:34;;;;;;;5.32;2.40;;;;;;;;;;5027678;28;20411;-64
2021/03/01 14:03:00;;;;;;;8.10;3.60;;;;;;;;;;5027509;28;20482;-67
2021/03/01 14:05:26;;;;;;;5.30;2.70;;;;;;;;;;5027452;28;20497;-68
2021/03/01 14:07:52;;;;;;;5.88;3.08;;;;;;;;;;5027997;28;20038;-70
2021/03/01 14:10:21;;;;;;;4.93;2.60;;;;;;;;;;5026780;28;20049;-71
2021/03/01 14:12:48;;;;;;;7.47;3.20;;;;;;;;;;5025860;28;20028;-69
2021/03/01 14:15:14;;;;;;;8.82;3.30;;;;;;;;;;5027400;28;20014;-75
2021/03/01 14:17:40;;;;;;;5.95;3.35;;;;;;;;;;5027480;28;20029;-68
2021/03/01 14:20:07;;;;;;;8.65;3.38;;;;;;;;;;5027714;28;20493;-75
2021/03/01 14:22:33;;;;;;;6.82;3.40;;;;;;;;;;5030019;28;20030;-74
2021/03/01 14:24:59;;;;;;;7.43;3.65;;;;;;;;;;5013342;28;20048;-68
2021/03/01 14:27:26;;;;;;;10.95;3.72;;;;;;;;;;5030881;28;20036;-69
2021/03/01 14:29:52;;;;;;;6.93;3.28;;;;;;;;;;5031346;28;20034;-69
2021/03/01 14:32:18;;;;;;;6.35;3.03;;;;;;;;;;5013543;28;20071;-69
2021/03/01 14:34:45;;;;;;;5.97;3.25;;;;;;;;;;5031050;28;20029;-72
2021/03/01 14:37:11;;;;;;;7.85;3.17;;;;;;;;;;5013252;28;20032;-68
2021/03/01 14:39:37;;;;;;;5.93;2.88;;;;;;;;;;5030714;28;20028;-69
2021/03/01 14:42:03;;;;;;;5.57;3.08;;;;;;;;;;5030455;28;20021;-68